sensor_id;sensor_type;location;lat;lon;timestamp;P1;durP1;ratioP1;P2;durP2;ratioP2
18021;SDS011;9136;48.822;7.966;2023-03-04T00:00:01;21.43;;;20.50;;
18021;SDS011;9136;48.822;7.966;2023-03-04T00:02:51;24.23;;;22.87;;
18021;SDS011;9136;48.822;7.966;2023-03-04T00:05:38;22.03;;;20.77;;
18021;SDS011;9136;48.822;7.966;2023-03-04T00:08:26;23.73;;;22.13;;
18021;SDS011;9136;48.822;7.966;2023-03-04T00:11:14;24.43;;;22.87;;
18021;SDS011;9136;48.822;7.966;2023-03-04T00:14:02;20.27;;;18.67;;
18021;SDS011;9136;48.822;7.966;2023-03-04T00:16:50;23.33;;;22.07;;
18021;SDS011;9136;48.822;7.966;2023-03-04T00:19:39;22.97;;;21.77;;
18021;SDS011;9136;48.822;7.966;2023-03-04T00:22:27;21.10;;;20.10;;
18021;SDS011;9136;48.822;7.966;2023-03-04T00:25:15;24.00;;;22.57;;
18021;SDS011;9136;48.822;7.966;2023-03-04T00:28:03;23.70;;;22.53;;
18021;SDS011;9136;48.822;7.966;2023-03-04T00:30:51;22.17;;;20.87;;
18021;SDS011;9136;48.822;7.966;2023-03-04T00:33:39;21.03;;;20.03;;
18021;SDS011;9136;48.822;7.966;2023-03-04T00:36:29;22.13;;;21.03;;
18021;SDS011;9136;48.822;7.966;2023-03-04T00:39:17;23.37;;;22.10;;
18021;SDS011;9136;48.822;7.966;2023-03-04T00:42:05;21.23;;;20.20;;
18021;SDS011;9136;48.822;7.966;2023-03-04T00:44:52;24.83;;;23.43;;
18021;SDS011;9136;48.822;7.966;2023-03-04T00:47:40;22.73;;;21.53;;
18021;SDS011;9136;48.822;7.966;2023-03-04T00:50:28;22.53;;;21.23;;
18021;SDS011;9136;48.822;7.966;2023-03-04T00:53:17;24.33;;;23.13;;
18021;SDS011;9136;48.822;7.966;2023-03-04T00:56:05;23.80;;;22.50;;
18021;SDS011;9136;48.822;7.966;2023-03-04T00:58:53;23.43;;;21.03;;
18021;SDS011;9136;48.822;7.966;2023-03-04T01:01:41;23.20;;;21.67;;
18021;SDS011;9136;48.822;7.966;2023-03-04T01:04:29;21.83;;;20.80;;
18021;SDS011;9136;48.822;7.966;2023-03-04T01:07:17;25.27;;;23.77;;
18021;SDS011;9136;48.822;7.966;2023-03-04T01:10:08;24.10;;;22.87;;
18021;SDS011;9136;48.822;7.966;2023-03-04T01:12:57;24.93;;;23.63;;
18021;SDS011;9136;48.822;7.966;2023-03-04T01:15:45;25.33;;;23.83;;
18021;SDS011;9136;48.822;7.966;2023-03-04T01:18:33;24.07;;;22.93;;
18021;SDS011;9136;48.822;7.966;2023-03-04T01:21:21;23.67;;;22.43;;
18021;SDS011;9136;48.822;7.966;2023-03-04T01:24:08;22.93;;;21.80;;
18021;SDS011;9136;48.822;7.966;2023-03-04T01:26:58;26.20;;;24.80;;
18021;SDS011;9136;48.822;7.966;2023-03-04T01:29:45;24.07;;;22.83;;
18021;SDS011;9136;48.822;7.966;2023-03-04T01:32:33;23.53;;;22.17;;
18021;SDS011;9136;48.822;7.966;2023-03-04T01:35:21;25.13;;;23.90;;
18021;SDS011;9136;48.822;7.966;2023-03-04T01:38:08;27.97;;;26.23;;
18021;SDS011;9136;48.822;7.966;2023-03-04T01:40:57;27.47;;;25.97;;
18021;SDS011;9136;48.822;7.966;2023-03-04T01:43:46;25.57;;;23.97;;
18021;SDS011;9136;48.822;7.966;2023-03-04T01:46:34;25.70;;;24.13;;
18021;SDS011;9136;48.822;7.966;2023-03-04T01:49:23;25.70;;;24.33;;
18021;SDS011;9136;48.822;7.966;2023-03-04T01:52:11;30.90;;;28.80;;
18021;SDS011;9136;48.822;7.966;2023-03-04T01:54:59;26.03;;;24.63;;
18021;SDS011;9136;48.822;7.966;2023-03-04T01:57:48;26.77;;;23.57;;
18021;SDS011;9136;48.822;7.966;2023-03-04T02:00:39;25.60;;;24.10;;
18021;SDS011;9136;48.822;7.966;2023-03-04T02:03:27;22.40;;;21.20;;
18021;SDS011;9136;48.822;7.966;2023-03-04T02:06:15;26.47;;;25.17;;
18021;SDS011;9136;48.822;7.966;2023-03-04T02:09:03;24.93;;;23.37;;
18021;SDS011;9136;48.822;7.966;2023-03-04T02:11:51;24.43;;;23.13;;
18021;SDS011;9136;48.822;7.966;2023-03-04T02:14:39;27.40;;;25.23;;
18021;SDS011;9136;48.822;7.966;2023-03-04T02:17:30;27.20;;;25.83;;
18021;SDS011;9136;48.822;7.966;2023-03-04T02:20:30;26.10;;;24.73;;
18021;SDS011;9136;48.822;7.966;2023-03-04T02:23:28;25.13;;;23.43;;
18021;SDS011;9136;48.822;7.966;2023-03-04T02:26:21;25.43;;;24.03;;
18021;SDS011;9136;48.822;7.966;2023-03-04T02:29:10;23.90;;;22.63;;
18021;SDS011;9136;48.822;7.966;2023-03-04T02:31:58;23.23;;;21.90;;
18021;SDS011;9136;48.822;7.966;2023-03-04T02:34:46;23.73;;;22.50;;
18021;SDS011;9136;48.822;7.966;2023-03-04T02:37:35;27.63;;;25.43;;
18021;SDS011;9136;48.822;7.966;2023-03-04T02:40:24;25.93;;;24.63;;
18021;SDS011;9136;48.822;7.966;2023-03-04T02:43:16;24.60;;;23.20;;
18021;SDS011;9136;48.822;7.966;2023-03-04T02:46:04;26.87;;;25.43;;
18021;SDS011;9136;48.822;7.966;2023-03-04T02:48:52;26.77;;;25.00;;
18021;SDS011;9136;48.822;7.966;2023-03-04T02:51:40;23.80;;;22.50;;
18021;SDS011;9136;48.822;7.966;2023-03-04T02:54:28;28.57;;;24.57;;
18021;SDS011;9136;48.822;7.966;2023-03-04T02:57:16;27.17;;;25.00;;
18021;SDS011;9136;48.822;7.966;2023-03-04T03:00:07;25.10;;;23.80;;
18021;SDS011;9136;48.822;7.966;2023-03-04T03:02:55;23.80;;;22.23;;
18021;SDS011;9136;48.822;7.966;2023-03-04T03:05:43;25.93;;;24.27;;
18021;SDS011;9136;48.822;7.966;2023-03-04T03:08:31;25.57;;;24.27;;
18021;SDS011;9136;48.822;7.966;2023-03-04T03:11:19;27.27;;;25.43;;
18021;SDS011;9136;48.822;7.966;2023-03-04T03:14:07;29.63;;;27.97;;
18021;SDS011;9136;48.822;7.966;2023-03-04T03:16:56;24.73;;;23.53;;
18021;SDS011;9136;48.822;7.966;2023-03-04T03:19:44;27.97;;;26.37;;
18021;SDS011;9136;48.822;7.966;2023-03-04T03:22:32;24.20;;;23.03;;
18021;SDS011;9136;48.822;7.966;2023-03-04T03:25:19;27.17;;;25.07;;
18021;SDS011;9136;48.822;7.966;2023-03-04T03:28:07;25.00;;;23.57;;
18021;SDS011;9136;48.822;7.966;2023-03-04T03:30:55;28.53;;;27.00;;
18021;SDS011;9136;48.822;7.966;2023-03-04T03:33:44;27.83;;;25.97;;
18021;SDS011;9136;48.822;7.966;2023-03-04T03:36:32;26.03;;;24.60;;
18021;SDS011;9136;48.822;7.966;2023-03-04T03:39:20;25.80;;;24.40;;
18021;SDS011;9136;48.822;7.966;2023-03-04T03:42:07;30.30;;;28.70;;
18021;SDS011;9136;48.822;7.966;2023-03-04T03:44:55;26.60;;;25.17;;
18021;SDS011;9136;48.822;7.966;2023-03-04T03:47:43;27.33;;;25.30;;
18021;SDS011;9136;48.822;7.966;2023-03-04T03:50:32;28.00;;;26.27;;
18021;SDS011;9136;48.822;7.966;2023-03-04T03:53:19;25.87;;;24.57;;
18021;SDS011;9136;48.822;7.966;2023-03-04T03:56:07;30.43;;;28.17;;
18021;SDS011;9136;48.822;7.966;2023-03-04T03:58:55;30.80;;;28.70;;
18021;SDS011;9136;48.822;7.966;2023-03-04T04:01:43;28.60;;;26.73;;
18021;SDS011;9136;48.822;7.966;2023-03-04T04:04:31;28.17;;;26.03;;
18021;SDS011;9136;48.822;7.966;2023-03-04T04:07:20;29.73;;;27.87;;
18021;SDS011;9136;48.822;7.966;2023-03-04T04:10:09;30.27;;;28.23;;
18021;SDS011;9136;48.822;7.966;2023-03-04T04:12:57;27.90;;;26.27;;
18021;SDS011;9136;48.822;7.966;2023-03-04T04:15:45;26.03;;;24.43;;
18021;SDS011;9136;48.822;7.966;2023-03-04T04:18:33;32.10;;;30.10;;
18021;SDS011;9136;48.822;7.966;2023-03-04T04:21:20;28.37;;;26.67;;
18021;SDS011;9136;48.822;7.966;2023-03-04T04:24:10;24.70;;;23.30;;
18021;SDS011;9136;48.822;7.966;2023-03-04T04:26:57;30.20;;;28.63;;
18021;SDS011;9136;48.822;7.966;2023-03-04T04:29:46;27.90;;;25.17;;
18021;SDS011;9136;48.822;7.966;2023-03-04T04:32:34;30.63;;;28.83;;
18021;SDS011;9136;48.822;7.966;2023-03-04T04:35:21;28.57;;;26.60;;
18021;SDS011;9136;48.822;7.966;2023-03-04T04:38:09;26.63;;;25.30;;
18021;SDS011;9136;48.822;7.966;2023-03-04T04:40:59;28.03;;;26.53;;
18021;SDS011;9136;48.822;7.966;2023-03-04T04:43:47;28.00;;;26.57;;
18021;SDS011;9136;48.822;7.966;2023-03-04T04:46:35;28.23;;;26.73;;
18021;SDS011;9136;48.822;7.966;2023-03-04T04:49:23;28.97;;;27.47;;
18021;SDS011;9136;48.822;7.966;2023-03-04T04:52:11;30.70;;;28.80;;
18021;SDS011;9136;48.822;7.966;2023-03-04T04:54:58;28.87;;;26.93;;
18021;SDS011;9136;48.822;7.966;2023-03-04T04:57:47;29.37;;;27.40;;
18021;SDS011;9136;48.822;7.966;2023-03-04T05:00:35;26.03;;;24.57;;
18021;SDS011;9136;48.822;7.966;2023-03-04T05:03:23;28.27;;;26.47;;
18021;SDS011;9136;48.822;7.966;2023-03-04T05:06:11;28.53;;;27.10;;
18021;SDS011;9136;48.822;7.966;2023-03-04T05:08:59;29.73;;;27.57;;
18021;SDS011;9136;48.822;7.966;2023-03-04T05:11:47;31.17;;;29.00;;
18021;SDS011;9136;48.822;7.966;2023-03-04T05:14:36;29.73;;;28.17;;
18021;SDS011;9136;48.822;7.966;2023-03-04T05:17:23;28.77;;;27.27;;
18021;SDS011;9136;48.822;7.966;2023-03-04T05:20:12;27.73;;;26.10;;
18021;SDS011;9136;48.822;7.966;2023-03-04T05:22:59;30.30;;;28.03;;
18021;SDS011;9136;48.822;7.966;2023-03-04T05:25:47;31.20;;;28.40;;
18021;SDS011;9136;48.822;7.966;2023-03-04T05:28:35;28.33;;;26.83;;
18021;SDS011;9136;48.822;7.966;2023-03-04T05:31:25;28.70;;;26.90;;
18021;SDS011;9136;48.822;7.966;2023-03-04T05:34:12;33.63;;;31.13;;
18021;SDS011;9136;48.822;7.966;2023-03-04T05:37:00;31.20;;;29.40;;
18021;SDS011;9136;48.822;7.966;2023-03-04T05:39:48;30.37;;;28.20;;
18021;SDS011;9136;48.822;7.966;2023-03-04T05:42:36;27.03;;;25.33;;
18021;SDS011;9136;48.822;7.966;2023-03-04T05:45:24;28.17;;;26.67;;
18021;SDS011;9136;48.822;7.966;2023-03-04T05:48:14;30.40;;;26.97;;
18021;SDS011;9136;48.822;7.966;2023-03-04T05:51:01;29.13;;;27.53;;
18021;SDS011;9136;48.822;7.966;2023-03-04T05:53:49;30.40;;;28.53;;
18021;SDS011;9136;48.822;7.966;2023-03-04T05:56:37;27.90;;;26.30;;
18021;SDS011;9136;48.822;7.966;2023-03-04T05:59:25;29.37;;;27.87;;
18021;SDS011;9136;48.822;7.966;2023-03-04T06:02:12;30.13;;;28.53;;
18021;SDS011;9136;48.822;7.966;2023-03-04T06:05:03;31.20;;;29.50;;
18021;SDS011;9136;48.822;7.966;2023-03-04T06:07:52;32.93;;;30.87;;
18021;SDS011;9136;48.822;7.966;2023-03-04T06:10:40;32.30;;;30.07;;
18021;SDS011;9136;48.822;7.966;2023-03-04T06:13:28;32.67;;;30.20;;
18021;SDS011;9136;48.822;7.966;2023-03-04T06:16:16;31.90;;;29.93;;
18021;SDS011;9136;48.822;7.966;2023-03-04T06:19:03;29.03;;;27.03;;
18021;SDS011;9136;48.822;7.966;2023-03-04T06:21:52;31.97;;;29.67;;
18021;SDS011;9136;48.822;7.966;2023-03-04T06:24:40;32.50;;;30.10;;
18021;SDS011;9136;48.822;7.966;2023-03-04T06:27:28;31.13;;;29.00;;
18021;SDS011;9136;48.822;7.966;2023-03-04T06:30:16;29.47;;;27.77;;
18021;SDS011;9136;48.822;7.966;2023-03-04T06:33:03;31.73;;;29.80;;
18021;SDS011;9136;48.822;7.966;2023-03-04T06:35:52;30.53;;;27.53;;
18021;SDS011;9136;48.822;7.966;2023-03-04T06:38:42;28.67;;;27.00;;
18021;SDS011;9136;48.822;7.966;2023-03-04T06:41:30;31.03;;;29.40;;
18021;SDS011;9136;48.822;7.966;2023-03-04T06:44:18;27.00;;;25.50;;
18021;SDS011;9136;48.822;7.966;2023-03-04T06:47:06;34.70;;;32.07;;
18021;SDS011;9136;48.822;7.966;2023-03-04T06:49:54;29.97;;;28.23;;
18021;SDS011;9136;48.822;7.966;2023-03-04T06:52:42;32.80;;;30.70;;
18021;SDS011;9136;48.822;7.966;2023-03-04T06:55:31;29.23;;;27.43;;
18021;SDS011;9136;48.822;7.966;2023-03-04T06:58:19;27.97;;;26.33;;
18021;SDS011;9136;48.822;7.966;2023-03-04T07:01:09;34.80;;;32.10;;
18021;SDS011;9136;48.822;7.966;2023-03-04T07:03:58;31.33;;;29.70;;
18021;SDS011;9136;48.822;7.966;2023-03-04T07:06:46;34.50;;;32.03;;
18021;SDS011;9136;48.822;7.966;2023-03-04T07:09:34;32.70;;;30.77;;
18021;SDS011;9136;48.822;7.966;2023-03-04T07:12:23;29.27;;;27.67;;
18021;SDS011;9136;48.822;7.966;2023-03-04T07:15:11;30.10;;;27.97;;
18021;SDS011;9136;48.822;7.966;2023-03-04T07:17:58;32.77;;;30.10;;
18021;SDS011;9136;48.822;7.966;2023-03-04T07:20:46;29.77;;;27.43;;
18021;SDS011;9136;48.822;7.966;2023-03-04T07:23:37;30.90;;;29.13;;
18021;SDS011;9136;48.822;7.966;2023-03-04T07:26:25;30.47;;;28.57;;
18021;SDS011;9136;48.822;7.966;2023-03-04T07:29:15;30.57;;;28.80;;
18021;SDS011;9136;48.822;7.966;2023-03-04T07:32:05;30.10;;;28.03;;
18021;SDS011;9136;48.822;7.966;2023-03-04T07:34:54;30.10;;;28.13;;
18021;SDS011;9136;48.822;7.966;2023-03-04T07:37:42;32.57;;;30.60;;
18021;SDS011;9136;48.822;7.966;2023-03-04T07:40:29;30.97;;;28.73;;
18021;SDS011;9136;48.822;7.966;2023-03-04T07:43:17;35.60;;;32.07;;
18021;SDS011;9136;48.822;7.966;2023-03-04T07:46:06;27.13;;;25.73;;
18021;SDS011;9136;48.822;7.966;2023-03-04T07:48:54;28.30;;;26.70;;
18021;SDS011;9136;48.822;7.966;2023-03-04T07:51:42;26.97;;;25.37;;
18021;SDS011;9136;48.822;7.966;2023-03-04T07:54:30;28.40;;;26.50;;
18021;SDS011;9136;48.822;7.966;2023-03-04T07:57:18;29.50;;;27.70;;
18021;SDS011;9136;48.822;7.966;2023-03-04T08:00:06;31.37;;;29.03;;
18021;SDS011;9136;48.822;7.966;2023-03-04T08:02:57;27.83;;;26.43;;
18021;SDS011;9136;48.822;7.966;2023-03-04T08:05:45;28.47;;;26.57;;
18021;SDS011;9136;48.822;7.966;2023-03-04T08:08:33;27.07;;;25.27;;
18021;SDS011;9136;48.822;7.966;2023-03-04T08:11:21;28.43;;;26.60;;
18021;SDS011;9136;48.822;7.966;2023-03-04T08:14:09;29.87;;;28.17;;
18021;SDS011;9136;48.822;7.966;2023-03-04T08:16:58;26.43;;;24.77;;
18021;SDS011;9136;48.822;7.966;2023-03-04T08:19:48;26.47;;;24.93;;
18021;SDS011;9136;48.822;7.966;2023-03-04T08:22:36;25.40;;;23.97;;
18021;SDS011;9136;48.822;7.966;2023-03-04T08:25:23;24.67;;;22.80;;
18021;SDS011;9136;48.822;7.966;2023-03-04T08:28:11;27.50;;;26.13;;
18021;SDS011;9136;48.822;7.966;2023-03-04T08:31:00;26.87;;;24.37;;
18021;SDS011;9136;48.822;7.966;2023-03-04T08:33:48;25.73;;;24.23;;
18021;SDS011;9136;48.822;7.966;2023-03-04T08:36:37;29.10;;;26.43;;
18021;SDS011;9136;48.822;7.966;2023-03-04T08:39:25;25.40;;;23.90;;
18021;SDS011;9136;48.822;7.966;2023-03-04T08:42:13;31.47;;;29.83;;
18021;SDS011;9136;48.822;7.966;2023-03-04T08:45:01;24.50;;;23.10;;
18021;SDS011;9136;48.822;7.966;2023-03-04T08:47:49;27.13;;;25.57;;
18021;SDS011;9136;48.822;7.966;2023-03-04T08:50:37;27.67;;;25.97;;
18021;SDS011;9136;48.822;7.966;2023-03-04T08:53:27;24.63;;;23.37;;
18021;SDS011;9136;48.822;7.966;2023-03-04T08:56:14;25.30;;;23.57;;
18021;SDS011;9136;48.822;7.966;2023-03-04T08:59:03;22.43;;;21.40;;
18021;SDS011;9136;48.822;7.966;2023-03-04T09:01:50;24.90;;;23.63;;
18021;SDS011;9136;48.822;7.966;2023-03-04T09:04:38;23.43;;;22.23;;
18021;SDS011;9136;48.822;7.966;2023-03-04T09:07:27;22.27;;;21.07;;
18021;SDS011;9136;48.822;7.966;2023-03-04T09:10:17;23.73;;;22.33;;
18021;SDS011;9136;48.822;7.966;2023-03-04T09:13:05;26.37;;;24.97;;
18021;SDS011;9136;48.822;7.966;2023-03-04T09:15:53;20.40;;;19.47;;
18021;SDS011;9136;48.822;7.966;2023-03-04T09:18:41;21.20;;;20.00;;
18021;SDS011;9136;48.822;7.966;2023-03-04T09:21:29;25.10;;;23.73;;
18021;SDS011;9136;48.822;7.966;2023-03-04T09:24:17;23.50;;;22.23;;
18021;SDS011;9136;48.822;7.966;2023-03-04T09:27:07;24.17;;;22.80;;
18021;SDS011;9136;48.822;7.966;2023-03-04T09:29:55;23.40;;;22.20;;
18021;SDS011;9136;48.822;7.966;2023-03-04T09:32:43;23.93;;;21.83;;
18021;SDS011;9136;48.822;7.966;2023-03-04T09:35:31;23.77;;;22.30;;
18021;SDS011;9136;48.822;7.966;2023-03-04T09:38:19;20.20;;;19.17;;
18021;SDS011;9136;48.822;7.966;2023-03-04T09:41:12;19.70;;;18.77;;
18021;SDS011;9136;48.822;7.966;2023-03-04T09:44:05;24.13;;;22.30;;
18021;SDS011;9136;48.822;7.966;2023-03-04T09:47:02;19.13;;;18.23;;
18021;SDS011;9136;48.822;7.966;2023-03-04T09:49:55;25.67;;;24.37;;
18021;SDS011;9136;48.822;7.966;2023-03-04T09:52:50;22.40;;;21.27;;
18021;SDS011;9136;48.822;7.966;2023-03-04T09:55:48;22.07;;;21.00;;
18021;SDS011;9136;48.822;7.966;2023-03-04T09:58:41;24.43;;;22.67;;
18021;SDS011;9136;48.822;7.966;2023-03-04T10:01:38;23.10;;;21.87;;
18021;SDS011;9136;48.822;7.966;2023-03-04T10:04:33;22.10;;;21.00;;
18021;SDS011;9136;48.822;7.966;2023-03-04T10:07:27;25.33;;;23.90;;
18021;SDS011;9136;48.822;7.966;2023-03-04T10:10:21;23.00;;;21.87;;
18021;SDS011;9136;48.822;7.966;2023-03-04T10:13:13;20.33;;;19.27;;
18021;SDS011;9136;48.822;7.966;2023-03-04T10:16:05;22.27;;;21.27;;
18021;SDS011;9136;48.822;7.966;2023-03-04T10:19:18;26.37;;;24.80;;
18021;SDS011;9136;48.822;7.966;2023-03-04T10:22:14;19.97;;;19.07;;
18021;SDS011;9136;48.822;7.966;2023-03-04T10:25:16;21.30;;;20.23;;
18021;SDS011;9136;48.822;7.966;2023-03-04T10:28:09;23.97;;;22.33;;
18021;SDS011;9136;48.822;7.966;2023-03-04T10:31:03;18.97;;;18.03;;
18021;SDS011;9136;48.822;7.966;2023-03-04T10:33:58;20.47;;;19.37;;
18021;SDS011;9136;48.822;7.966;2023-03-04T10:36:49;24.40;;;23.03;;
18021;SDS011;9136;48.822;7.966;2023-03-04T10:39:45;21.03;;;20.03;;
18021;SDS011;9136;48.822;7.966;2023-03-04T10:42:34;24.70;;;23.27;;
18021;SDS011;9136;48.822;7.966;2023-03-04T10:45:23;25.13;;;23.70;;
18021;SDS011;9136;48.822;7.966;2023-03-04T10:48:17;22.57;;;21.27;;
18021;SDS011;9136;48.822;7.966;2023-03-04T10:51:10;21.47;;;20.43;;
18021;SDS011;9136;48.822;7.966;2023-03-04T10:54:06;20.70;;;19.60;;
18021;SDS011;9136;48.822;7.966;2023-03-04T10:56:58;23.27;;;22.07;;
18021;SDS011;9136;48.822;7.966;2023-03-04T10:59:47;25.87;;;24.10;;
18021;SDS011;9136;48.822;7.966;2023-03-04T11:02:38;22.47;;;21.37;;
18021;SDS011;9136;48.822;7.966;2023-03-04T11:05:26;23.50;;;21.80;;
18021;SDS011;9136;48.822;7.966;2023-03-04T11:08:19;22.80;;;21.60;;
18021;SDS011;9136;48.822;7.966;2023-03-04T11:11:23;21.60;;;20.50;;
18021;SDS011;9136;48.822;7.966;2023-03-04T11:14:16;23.07;;;21.63;;
18021;SDS011;9136;48.822;7.966;2023-03-04T11:17:21;22.17;;;20.97;;
18021;SDS011;9136;48.822;7.966;2023-03-04T11:20:12;21.07;;;19.73;;
18021;SDS011;9136;48.822;7.966;2023-03-04T11:23:04;19.50;;;18.50;;
18021;SDS011;9136;48.822;7.966;2023-03-04T11:25:54;22.83;;;21.30;;
18021;SDS011;9136;48.822;7.966;2023-03-04T11:28:50;23.70;;;22.00;;
18021;SDS011;9136;48.822;7.966;2023-03-04T11:31:42;23.57;;;21.70;;
18021;SDS011;9136;48.822;7.966;2023-03-04T11:34:36;24.13;;;22.73;;
18021;SDS011;9136;48.822;7.966;2023-03-04T11:37:29;22.37;;;20.80;;
18021;SDS011;9136;48.822;7.966;2023-03-04T11:40:23;21.13;;;20.07;;
18021;SDS011;9136;48.822;7.966;2023-03-04T11:43:18;22.57;;;21.03;;
18021;SDS011;9136;48.822;7.966;2023-03-04T11:49:45;21.40;;;20.23;;
18021;SDS011;9136;48.822;7.966;2023-03-04T11:52:50;22.93;;;21.83;;
18021;SDS011;9136;48.822;7.966;2023-03-04T11:55:49;23.63;;;22.00;;
18021;SDS011;9136;48.822;7.966;2023-03-04T12:02:11;23.80;;;22.13;;
18021;SDS011;9136;48.822;7.966;2023-03-04T12:05:14;28.03;;;26.07;;
18021;SDS011;9136;48.822;7.966;2023-03-04T12:08:16;28.00;;;25.90;;
18021;SDS011;9136;48.822;7.966;2023-03-04T12:11:17;23.80;;;22.40;;
18021;SDS011;9136;48.822;7.966;2023-03-04T12:14:18;22.27;;;21.00;;
18021;SDS011;9136;48.822;7.966;2023-03-04T12:20:27;26.00;;;24.63;;
18021;SDS011;9136;48.822;7.966;2023-03-04T12:23:29;24.20;;;22.70;;
18021;SDS011;9136;48.822;7.966;2023-03-04T12:26:31;24.60;;;23.07;;
18021;SDS011;9136;48.822;7.966;2023-03-04T12:29:26;20.40;;;19.37;;
18021;SDS011;9136;48.822;7.966;2023-03-04T12:32:20;22.90;;;21.77;;
18021;SDS011;9136;48.822;7.966;2023-03-04T12:38:29;24.33;;;22.60;;
18021;SDS011;9136;48.822;7.966;2023-03-04T12:41:33;25.73;;;24.37;;
18021;SDS011;9136;48.822;7.966;2023-03-04T12:44:28;20.87;;;19.70;;
18021;SDS011;9136;48.822;7.966;2023-03-04T12:47:28;24.77;;;23.57;;
18021;SDS011;9136;48.822;7.966;2023-03-04T12:50:30;27.07;;;25.57;;
18021;SDS011;9136;48.822;7.966;2023-03-04T12:53:31;22.07;;;21.07;;
18021;SDS011;9136;48.822;7.966;2023-03-04T12:56:36;23.70;;;22.30;;
18021;SDS011;9136;48.822;7.966;2023-03-04T12:59:29;24.03;;;22.50;;
18021;SDS011;9136;48.822;7.966;2023-03-04T13:02:29;24.27;;;22.53;;
18021;SDS011;9136;48.822;7.966;2023-03-04T13:05:30;22.80;;;21.23;;
18021;SDS011;9136;48.822;7.966;2023-03-04T13:08:33;25.10;;;23.37;;
18021;SDS011;9136;48.822;7.966;2023-03-04T13:21:25;21.13;;;20.13;;
18021;SDS011;9136;48.822;7.966;2023-03-04T13:27:45;23.97;;;22.53;;
18021;SDS011;9136;48.822;7.966;2023-03-04T13:30:40;21.07;;;19.73;;
18021;SDS011;9136;48.822;7.966;2023-03-04T13:33:51;21.00;;;19.37;;
18021;SDS011;9136;48.822;7.966;2023-03-04T13:36:54;22.03;;;20.93;;
18021;SDS011;9136;48.822;7.966;2023-03-04T13:39:44;22.97;;;21.67;;
18021;SDS011;9136;48.822;7.966;2023-03-04T13:42:53;23.07;;;21.87;;
18021;SDS011;9136;48.822;7.966;2023-03-04T13:45:41;23.20;;;21.93;;
18021;SDS011;9136;48.822;7.966;2023-03-04T13:48:30;21.83;;;20.83;;
18021;SDS011;9136;48.822;7.966;2023-03-04T13:51:22;19.67;;;18.70;;
18021;SDS011;9136;48.822;7.966;2023-03-04T13:54:12;20.23;;;18.87;;
18021;SDS011;9136;48.822;7.966;2023-03-04T13:57:14;23.53;;;22.07;;
18021;SDS011;9136;48.822;7.966;2023-03-04T14:00:09;23.03;;;21.80;;
18021;SDS011;9136;48.822;7.966;2023-03-04T14:03:11;19.00;;;18.00;;
18021;SDS011;9136;48.822;7.966;2023-03-04T14:06:11;23.07;;;21.67;;
18021;SDS011;9136;48.822;7.966;2023-03-04T14:09:08;20.97;;;19.83;;
18021;SDS011;9136;48.822;7.966;2023-03-04T14:12:00;19.83;;;18.60;;
18021;SDS011;9136;48.822;7.966;2023-03-04T14:14:52;20.97;;;19.67;;
18021;SDS011;9136;48.822;7.966;2023-03-04T14:17:43;22.67;;;21.43;;
18021;SDS011;9136;48.822;7.966;2023-03-04T14:20:34;22.07;;;20.67;;
18021;SDS011;9136;48.822;7.966;2023-03-04T14:23:24;22.97;;;21.77;;
18021;SDS011;9136;48.822;7.966;2023-03-04T14:26:16;20.47;;;19.53;;
18021;SDS011;9136;48.822;7.966;2023-03-04T14:29:17;21.80;;;20.77;;
18021;SDS011;9136;48.822;7.966;2023-03-04T14:32:09;22.27;;;21.10;;
18021;SDS011;9136;48.822;7.966;2023-03-04T14:35:00;23.17;;;21.87;;
18021;SDS011;9136;48.822;7.966;2023-03-04T14:37:53;19.93;;;18.47;;
18021;SDS011;9136;48.822;7.966;2023-03-04T14:40:44;22.17;;;21.07;;
18021;SDS011;9136;48.822;7.966;2023-03-04T14:43:37;21.43;;;20.33;;
18021;SDS011;9136;48.822;7.966;2023-03-04T14:46:29;22.63;;;21.50;;
18021;SDS011;9136;48.822;7.966;2023-03-04T14:49:22;20.73;;;19.53;;
18021;SDS011;9136;48.822;7.966;2023-03-04T14:55:24;20.20;;;19.20;;
18021;SDS011;9136;48.822;7.966;2023-03-04T14:58:18;17.40;;;16.63;;
18021;SDS011;9136;48.822;7.966;2023-03-04T15:01:12;21.87;;;20.50;;
18021;SDS011;9136;48.822;7.966;2023-03-04T15:04:03;24.17;;;22.33;;
18021;SDS011;9136;48.822;7.966;2023-03-04T15:06:54;21.10;;;20.00;;
18021;SDS011;9136;48.822;7.966;2023-03-04T15:09:42;22.20;;;20.93;;
18021;SDS011;9136;48.822;7.966;2023-03-04T15:12:37;19.90;;;18.70;;
18021;SDS011;9136;48.822;7.966;2023-03-04T15:15:32;22.00;;;20.90;;
18021;SDS011;9136;48.822;7.966;2023-03-04T15:18:26;21.83;;;20.63;;
18021;SDS011;9136;48.822;7.966;2023-03-04T15:21:28;21.77;;;20.73;;
18021;SDS011;9136;48.822;7.966;2023-03-04T15:24:20;22.63;;;21.33;;
18021;SDS011;9136;48.822;7.966;2023-03-04T15:27:09;19.60;;;18.50;;
18021;SDS011;9136;48.822;7.966;2023-03-04T15:29:58;21.40;;;20.13;;
18021;SDS011;9136;48.822;7.966;2023-03-04T15:32:47;23.07;;;21.77;;
18021;SDS011;9136;48.822;7.966;2023-03-04T15:35:34;21.80;;;20.27;;
18021;SDS011;9136;48.822;7.966;2023-03-04T15:38:22;21.03;;;19.53;;
18021;SDS011;9136;48.822;7.966;2023-03-04T15:41:13;21.53;;;20.30;;
18021;SDS011;9136;48.822;7.966;2023-03-04T15:44:04;21.83;;;20.63;;
18021;SDS011;9136;48.822;7.966;2023-03-04T15:46:52;22.57;;;20.63;;
18021;SDS011;9136;48.822;7.966;2023-03-04T15:49:41;23.50;;;21.57;;
18021;SDS011;9136;48.822;7.966;2023-03-04T15:52:32;19.77;;;18.67;;
18021;SDS011;9136;48.822;7.966;2023-03-04T15:55:20;21.27;;;20.27;;
18021;SDS011;9136;48.822;7.966;2023-03-04T15:58:10;20.37;;;19.37;;
18021;SDS011;9136;48.822;7.966;2023-03-04T16:00:58;19.70;;;18.73;;
18021;SDS011;9136;48.822;7.966;2023-03-04T16:03:46;21.90;;;20.50;;
18021;SDS011;9136;48.822;7.966;2023-03-04T16:06:34;20.57;;;19.57;;
18021;SDS011;9136;48.822;7.966;2023-03-04T16:09:22;21.77;;;20.67;;
18021;SDS011;9136;48.822;7.966;2023-03-04T16:12:11;21.33;;;20.23;;
18021;SDS011;9136;48.822;7.966;2023-03-04T16:15:00;19.80;;;18.27;;
18021;SDS011;9136;48.822;7.966;2023-03-04T16:17:48;22.40;;;21.17;;
18021;SDS011;9136;48.822;7.966;2023-03-04T16:20:36;21.13;;;20.10;;
18021;SDS011;9136;48.822;7.966;2023-03-04T16:23:25;20.73;;;19.63;;
18021;SDS011;9136;48.822;7.966;2023-03-04T16:26:14;19.77;;;18.87;;
18021;SDS011;9136;48.822;7.966;2023-03-04T16:29:04;20.33;;;19.33;;
18021;SDS011;9136;48.822;7.966;2023-03-04T16:31:54;23.03;;;21.80;;
18021;SDS011;9136;48.822;7.966;2023-03-04T16:34:41;21.87;;;20.57;;
18021;SDS011;9136;48.822;7.966;2023-03-04T16:37:29;19.80;;;18.90;;
18021;SDS011;9136;48.822;7.966;2023-03-04T16:40:18;20.97;;;19.93;;
18021;SDS011;9136;48.822;7.966;2023-03-04T16:43:08;20.07;;;19.07;;
18021;SDS011;9136;48.822;7.966;2023-03-04T16:45:57;22.27;;;21.23;;
18021;SDS011;9136;48.822;7.966;2023-03-04T16:48:46;22.33;;;20.77;;
18021;SDS011;9136;48.822;7.966;2023-03-04T16:51:35;21.50;;;20.43;;
18021;SDS011;9136;48.822;7.966;2023-03-04T16:54:29;20.67;;;19.10;;
18021;SDS011;9136;48.822;7.966;2023-03-04T16:57:19;22.70;;;21.60;;
18021;SDS011;9136;48.822;7.966;2023-03-04T17:00:08;20.27;;;19.37;;
18021;SDS011;9136;48.822;7.966;2023-03-04T17:02:58;21.90;;;20.57;;
18021;SDS011;9136;48.822;7.966;2023-03-04T17:05:48;22.93;;;21.37;;
18021;SDS011;9136;48.822;7.966;2023-03-04T17:08:35;20.00;;;19.00;;
18021;SDS011;9136;48.822;7.966;2023-03-04T17:11:23;19.63;;;18.63;;
18021;SDS011;9136;48.822;7.966;2023-03-04T17:14:11;22.70;;;20.90;;
18021;SDS011;9136;48.822;7.966;2023-03-04T17:16:59;22.43;;;20.63;;
18021;SDS011;9136;48.822;7.966;2023-03-04T17:19:47;19.20;;;18.10;;